sensor_id;sensor_type;location;lat;lon;timestamp;pressure;altitude;pressure_sealevel;temperature;humidity
13027;BME280;6580;42.680;23.324;2023-05-21T00:01:04;95133.22;;;15.81;100.00
13027;BME280;6580;42.680;23.324;2023-05-21T00:03:49;95127.06;;;15.87;100.00
13027;BME280;6580;42.680;23.324;2023-05-21T00:06:36;95125.41;;;15.86;100.00
13027;BME280;6580;42.680;23.324;2023-05-21T00:09:21;95125.25;;;15.88;100.00
13027;BME280;6580;42.680;23.324;2023-05-21T00:12:10;95132.81;;;15.84;100.00
13027;BME280;6580;42.680;23.324;2023-05-21T00:14:57;95121.75;;;15.94;100.00
13027;BME280;6580;42.680;23.324;2023-05-21T00:17:45;95121.44;;;16.03;100.00
13027;BME280;6580;42.680;23.324;2023-05-21T00:20:31;95111.81;;;15.88;100.00
13027;BME280;6580;42.680;23.324;2023-05-21T00:23:16;95112.50;;;15.96;100.00
13027;BME280;6580;42.680;23.324;2023-05-21T00:26:02;95115.06;;;15.83;100.00
13027;BME280;6580;42.680;23.324;2023-05-21T00:28:47;95117.03;;;15.75;100.00
13027;BME280;6580;42.680;23.324;2023-05-21T00:31:34;95111.34;;;15.84;100.00
13027;BME280;6580;42.680;23.324;2023-05-21T00:34:23;95116.34;;;15.87;100.00
13027;BME280;6580;42.680;23.324;2023-05-21T00:37:10;95114.22;;;15.83;100.00
13027;BME280;6580;42.680;23.324;2023-05-21T00:39:59;95111.22;;;15.71;100.00
13027;BME280;6580;42.680;23.324;2023-05-21T00:42:46;95107.19;;;15.82;100.00
13027;BME280;6580;42.680;23.324;2023-05-21T00:45:33;95105.53;;;15.60;100.00
13027;BME280;6580;42.680;23.324;2023-05-21T00:48:22;95107.06;;;15.48;100.00
13027;BME280;6580;42.680;23.324;2023-05-21T00:51:08;95103.59;;;15.19;100.00
13027;BME280;6580;42.680;23.324;2023-05-21T00:53:56;95110.56;;;15.48;100.00
13027;BME280;6580;42.680;23.324;2023-05-21T00:56:43;95108.00;;;15.40;100.00
13027;BME280;6580;42.680;23.324;2023-05-21T00:59:32;95107.31;;;15.32;100.00
13027;BME280;6580;42.680;23.324;2023-05-21T01:02:20;95109.97;;;15.18;100.00
13027;BME280;6580;42.680;23.324;2023-05-21T01:05:09;95108.53;;;15.50;100.00
13027;BME280;6580;42.680;23.324;2023-05-21T01:07:56;95100.06;;;15.32;100.00
13027;BME280;6580;42.680;23.324;2023-05-21T01:10:46;95107.63;;;15.43;100.00
13027;BME280;6580;42.680;23.324;2023-05-21T01:13:33;95102.03;;;15.59;100.00
13027;BME280;6580;42.680;23.324;2023-05-21T01:16:21;95092.09;;;15.60;100.00
13027;BME280;6580;42.680;23.324;2023-05-21T01:19:11;95087.69;;;15.52;100.00
13027;BME280;6580;42.680;23.324;2023-05-21T01:22:04;95083.28;;;15.45;100.00
13027;BME280;6580;42.680;23.324;2023-05-21T01:24:53;95082.53;;;15.51;100.00
13027;BME280;6580;42.680;23.324;2023-05-21T01:27:38;95082.06;;;15.47;100.00
13027;BME280;6580;42.680;23.324;2023-05-21T01:30:28;95086.28;;;15.35;100.00
13027;BME280;6580;42.680;23.324;2023-05-21T01:33:16;95083.84;;;15.40;100.00
13027;BME280;6580;42.680;23.324;2023-05-21T01:36:07;95086.81;;;15.45;100.00
13027;BME280;6580;42.680;23.324;2023-05-21T01:38:59;95084.13;;;15.45;100.00
13027;BME280;6580;42.680;23.324;2023-05-21T01:41:51;95081.63;;;15.44;100.00
13027;BME280;6580;42.680;23.324;2023-05-21T01:44:39;95077.22;;;15.57;100.00
13027;BME280;6580;42.680;23.324;2023-05-21T01:47:25;95066.84;;;15.54;100.00
13027;BME280;6580;42.680;23.324;2023-05-21T01:50:13;95087.19;;;15.42;100.00
13027;BME280;6580;42.680;23.324;2023-05-21T01:52:59;95087.94;;;15.36;100.00
13027;BME280;6580;42.680;23.324;2023-05-21T01:55:47;95086.22;;;15.50;100.00
13027;BME280;6580;42.680;23.324;2023-05-21T01:58:40;95081.94;;;15.34;100.00
13027;BME280;6580;42.680;23.324;2023-05-21T02:01:27;95077.56;;;15.33;100.00
13027;BME280;6580;42.680;23.324;2023-05-21T02:04:14;95072.69;;;15.23;100.00
13027;BME280;6580;42.680;23.324;2023-05-21T02:07:04;95071.31;;;15.68;100.00
13027;BME280;6580;42.680;23.324;2023-05-21T02:09:53;95071.47;;;15.39;100.00
13027;BME280;6580;42.680;23.324;2023-05-21T02:12:40;95061.75;;;15.38;100.00
13027;BME280;6580;42.680;23.324;2023-05-21T02:15:27;95070.00;;;15.23;100.00
13027;BME280;6580;42.680;23.324;2023-05-21T02:18:15;95064.75;;;15.15;100.00
13027;BME280;6580;42.680;23.324;2023-05-21T02:21:01;95065.97;;;15.27;100.00
13027;BME280;6580;42.680;23.324;2023-05-21T02:23:48;95068.91;;;15.17;100.00
13027;BME280;6580;42.680;23.324;2023-05-21T02:26:35;95066.97;;;15.26;100.00
13027;BME280;6580;42.680;23.324;2023-05-21T02:29:25;95067.78;;;15.12;100.00
13027;BME280;6580;42.680;23.324;2023-05-21T02:32:16;95065.34;;;14.96;100.00
13027;BME280;6580;42.680;23.324;2023-05-21T02:35:03;95067.50;;;14.86;100.00
13027;BME280;6580;42.680;23.324;2023-05-21T02:37:50;95070.72;;;14.96;100.00
13027;BME280;6580;42.680;23.324;2023-05-21T02:40:36;95066.78;;;14.77;100.00
13027;BME280;6580;42.680;23.324;2023-05-21T02:43:21;95061.19;;;14.93;100.00
13027;BME280;6580;42.680;23.324;2023-05-21T02:46:07;95065.41;;;14.67;100.00
13027;BME280;6580;42.680;23.324;2023-05-21T02:48:57;95069.25;;;14.79;100.00
13027;BME280;6580;42.680;23.324;2023-05-21T02:51:45;95065.03;;;14.55;100.00
13027;BME280;6580;42.680;23.324;2023-05-21T02:54:30;95061.34;;;14.71;100.00
13027;BME280;6580;42.680;23.324;2023-05-21T02:57:18;95063.47;;;14.46;100.00
13027;BME280;6580;42.680;23.324;2023-05-21T03:00:06;95063.00;;;14.43;100.00
13027;BME280;6580;42.680;23.324;2023-05-21T03:02:54;95063.56;;;14.53;100.00
13027;BME280;6580;42.680;23.324;2023-05-21T03:05:43;95058.56;;;14.50;100.00
13027;BME280;6580;42.680;23.324;2023-05-21T03:08:29;95068.44;;;14.49;100.00
13027;BME280;6580;42.680;23.324;2023-05-21T03:11:14;95071.41;;;14.54;100.00
13027;BME280;6580;42.680;23.324;2023-05-21T03:14:01;95074.09;;;14.69;100.00
13027;BME280;6580;42.680;23.324;2023-05-21T03:16:49;95069.53;;;14.69;100.00
13027;BME280;6580;42.680;23.324;2023-05-21T03:19:36;95071.50;;;14.61;100.00
13027;BME280;6580;42.680;23.324;2023-05-21T03:22:23;95060.78;;;14.61;100.00
13027;BME280;6580;42.680;23.324;2023-05-21T03:25:13;95064.31;;;14.47;100.00
13027;BME280;6580;42.680;23.324;2023-05-21T03:27:59;95071.50;;;14.75;100.00
13027;BME280;6580;42.680;23.324;2023-05-21T03:30:47;95080.06;;;14.85;100.00
13027;BME280;6580;42.680;23.324;2023-05-21T03:33:35;95076.28;;;14.80;100.00
13027;BME280;6580;42.680;23.324;2023-05-21T03:36:21;95079.03;;;14.86;100.00
13027;BME280;6580;42.680;23.324;2023-05-21T03:39:09;95076.72;;;14.98;100.00
13027;BME280;6580;42.680;23.324;2023-05-21T03:41:57;95067.66;;;14.84;100.00
13027;BME280;6580;42.680;23.324;2023-05-21T03:44:44;95085.44;;;14.85;100.00
13027;BME280;6580;42.680;23.324;2023-05-21T03:47:33;95067.66;;;14.99;100.00
13027;BME280;6580;42.680;23.324;2023-05-21T03:50:20;95077.09;;;14.95;100.00
13027;BME280;6580;42.680;23.324;2023-05-21T03:53:10;95067.41;;;15.15;100.00
13027;BME280;6580;42.680;23.324;2023-05-21T03:56:03;95074.97;;;15.05;100.00
13027;BME280;6580;42.680;23.324;2023-05-21T03:58:48;95069.53;;;14.69;100.00
13027;BME280;6580;42.680;23.324;2023-05-21T04:01:34;95059.66;;;14.70;100.00
13027;BME280;6580;42.680;23.324;2023-05-21T04:04:22;95067.63;;;14.63;100.00
13027;BME280;6580;42.680;23.324;2023-05-21T04:07:07;95057.28;;;14.96;100.00
13027;BME280;6580;42.680;23.324;2023-05-21T04:09:58;95059.13;;;15.10;100.00
13027;BME280;6580;42.680;23.324;2023-05-21T04:12:46;95052.66;;;15.04;100.00
13027;BME280;6580;42.680;23.324;2023-05-21T04:15:35;95065.97;;;15.12;100.00
13027;BME280;6580;42.680;23.324;2023-05-21T04:18:21;95066.53;;;15.43;100.00
13027;BME280;6580;42.680;23.324;2023-05-21T04:21:10;95055.22;;;15.47;100.00
13027;BME280;6580;42.680;23.324;2023-05-21T04:23:56;95065.66;;;15.36;100.00
13027;BME280;6580;42.680;23.324;2023-05-21T04:26:44;95062.41;;;15.61;100.00
13027;BME280;6580;42.680;23.324;2023-05-21T04:29:34;95064.06;;;15.62;100.00
13027;BME280;6580;42.680;23.324;2023-05-21T04:32:20;95051.44;;;15.42;100.00
13027;BME280;6580;42.680;23.324;2023-05-21T04:35:09;95063.91;;;15.70;100.00
13027;BME280;6580;42.680;23.324;2023-05-21T04:37:57;95062.50;;;15.74;100.00
13027;BME280;6580;42.680;23.324;2023-05-21T04:40:43;95058.97;;;15.95;100.00
13027;BME280;6580;42.680;23.324;2023-05-21T04:43:28;95056.56;;;16.06;100.00
13027;BME280;6580;42.680;23.324;2023-05-21T04:46:16;95065.84;;;15.76;100.00
13027;BME280;6580;42.680;23.324;2023-05-21T04:49:01;95061.84;;;15.93;100.00
13027;BME280;6580;42.680;23.324;2023-05-21T04:51:47;95066.56;;;16.12;100.00
13027;BME280;6580;42.680;23.324;2023-05-21T04:54:33;95053.75;;;16.14;100.00
13027;BME280;6580;42.680;23.324;2023-05-21T04:57:22;95061.66;;;16.22;100.00
13027;BME280;6580;42.680;23.324;2023-05-21T05:00:09;95064.78;;;16.46;100.00
13027;BME280;6580;42.680;23.324;2023-05-21T05:02:57;95055.72;;;16.54;100.00
13027;BME280;6580;42.680;23.324;2023-05-21T05:05:42;95055.41;;;16.76;100.00
13027;BME280;6580;42.680;23.324;2023-05-21T05:08:28;95061.84;;;16.82;100.00
13027;BME280;6580;42.680;23.324;2023-05-21T05:11:13;95049.31;;;16.95;100.00
13027;BME280;6580;42.680;23.324;2023-05-21T05:13:59;95047.63;;;16.94;100.00
13027;BME280;6580;42.680;23.324;2023-05-21T05:16:44;95050.22;;;17.22;100.00
13027;BME280;6580;42.680;23.324;2023-05-21T05:19:32;95047.44;;;17.55;100.00
13027;BME280;6580;42.680;23.324;2023-05-21T05:22:17;95053.47;;;17.57;100.00
13027;BME280;6580;42.680;23.324;2023-05-21T05:25:03;95054.91;;;17.66;100.00
13027;BME280;6580;42.680;23.324;2023-05-21T05:27:49;95053.69;;;17.75;100.00
13027;BME280;6580;42.680;23.324;2023-05-21T05:30:34;95036.69;;;17.68;100.00
13027;BME280;6580;42.680;23.324;2023-05-21T05:33:20;95039.19;;;17.96;100.00
13027;BME280;6580;42.680;23.324;2023-05-21T05:36:07;95045.19;;;18.04;100.00
13027;BME280;6580;42.680;23.324;2023-05-21T05:38:53;95040.66;;;18.11;100.00
13027;BME280;6580;42.680;23.324;2023-05-21T05:41:38;95040.06;;;18.35;100.00
13027;BME280;6580;42.680;23.324;2023-05-21T05:44:23;95046.06;;;18.43;100.00
13027;BME280;6580;42.680;23.324;2023-05-21T05:47:09;95041.09;;;18.34;100.00
13027;BME280;6580;42.680;23.324;2023-05-21T05:49:54;95036.09;;;18.38;100.00
13027;BME280;6580;42.680;23.324;2023-05-21T05:52:41;95035.44;;;18.61;100.00
13027;BME280;6580;42.680;23.324;2023-05-21T05:55:26;95032.00;;;18.98;100.00
13027;BME280;6580;42.680;23.324;2023-05-21T05:58:11;95025.63;;;19.37;100.00
13027;BME280;6580;42.680;23.324;2023-05-21T06:00:57;95040.22;;;19.97;94.36
13027;BME280;6580;42.680;23.324;2023-05-21T06:03:43;95035.25;;;20.43;88.09
13027;BME280;6580;42.680;23.324;2023-05-21T06:06:29;95030.19;;;21.43;80.98
13027;BME280;6580;42.680;23.324;2023-05-21T06:09:20;95027.84;;;22.80;73.85
13027;BME280;6580;42.680;23.324;2023-05-21T06:12:07;95010.00;;;23.46;61.43
13027;BME280;6580;42.680;23.324;2023-05-21T06:14:54;95012.69;;;23.58;57.00
13027;BME280;6580;42.680;23.324;2023-05-21T06:17:39;95014.66;;;24.18;58.13
13027;BME280;6580;42.680;23.324;2023-05-21T06:20:24;95009.66;;;24.59;52.92
13027;BME280;6580;42.680;23.324;2023-05-21T06:23:10;95008.91;;;23.59;55.55
13027;BME280;6580;42.680;23.324;2023-05-21T06:25:57;95010.38;;;22.42;60.28
13027;BME280;6580;42.680;23.324;2023-05-21T06:28:43;95009.91;;;22.33;62.18
13027;BME280;6580;42.680;23.324;2023-05-21T06:31:30;95006.72;;;21.37;63.93
13027;BME280;6580;42.680;23.324;2023-05-21T06:34:17;95011.13;;;21.20;67.04
13027;BME280;6580;42.680;23.324;2023-05-21T06:37:05;95011.94;;;21.49;66.03
13027;BME280;6580;42.680;23.324;2023-05-21T06:39:50;95004.16;;;21.59;64.33
13027;BME280;6580;42.680;23.324;2023-05-21T06:42:37;95002.38;;;21.65;65.65
13027;BME280;6580;42.680;23.324;2023-05-21T06:45:22;94996.28;;;21.22;64.64
13027;BME280;6580;42.680;23.324;2023-05-21T06:48:09;94983.75;;;20.92;65.79
13027;BME280;6580;42.680;23.324;2023-05-21T06:50:59;94995.44;;;21.40;62.79
13027;BME280;6580;42.680;23.324;2023-05-21T06:53:45;94999.03;;;21.81;63.13
13027;BME280;6580;42.680;23.324;2023-05-21T06:56:31;94992.19;;;22.42;59.25
13027;BME280;6580;42.680;23.324;2023-05-21T06:59:18;94996.91;;;22.58;57.16
13027;BME280;6580;42.680;23.324;2023-05-21T07:02:03;94989.81;;;22.68;56.24
13027;BME280;6580;42.680;23.324;2023-05-21T07:04:51;94992.16;;;22.88;55.57
13027;BME280;6580;42.680;23.324;2023-05-21T07:07:39;94989.69;;;24.70;50.37
13027;BME280;6580;42.680;23.324;2023-05-21T07:10:24;94979.41;;;26.00;46.74
13027;BME280;6580;42.680;23.324;2023-05-21T07:13:10;94984.56;;;24.24;49.69
13027;BME280;6580;42.680;23.324;2023-05-21T07:15:58;94984.59;;;23.52;50.96
13027;BME280;6580;42.680;23.324;2023-05-21T07:18:43;94982.44;;;23.54;52.53
13027;BME280;6580;42.680;23.324;2023-05-21T07:21:28;94980.25;;;24.12;50.45
13027;BME280;6580;42.680;23.324;2023-05-21T07:24:14;94973.44;;;25.13;48.40
13027;BME280;6580;42.680;23.324;2023-05-21T07:27:01;94973.84;;;26.48;43.76
13027;BME280;6580;42.680;23.324;2023-05-21T07:29:47;94975.41;;;26.76;43.82
13027;BME280;6580;42.680;23.324;2023-05-21T07:32:34;94976.09;;;26.56;43.78
13027;BME280;6580;42.680;23.324;2023-05-21T07:35:22;94976.63;;;28.22;41.66
13027;BME280;6580;42.680;23.324;2023-05-21T07:38:08;94967.91;;;28.25;39.17
13027;BME280;6580;42.680;23.324;2023-05-21T07:40:54;94984.50;;;27.88;39.21
13027;BME280;6580;42.680;23.324;2023-05-21T07:43:39;94970.47;;;26.41;40.08
13027;BME280;6580;42.680;23.324;2023-05-21T07:46:25;94973.75;;;26.12;41.65
13027;BME280;6580;42.680;23.324;2023-05-21T07:49:12;94966.69;;;26.79;39.72
13027;BME280;6580;42.680;23.324;2023-05-21T07:52:00;94968.50;;;26.00;40.73
13027;BME280;6580;42.680;23.324;2023-05-21T07:54:49;94970.66;;;26.56;39.54
13027;BME280;6580;42.680;23.324;2023-05-21T07:57:35;94961.72;;;26.39;37.65
13027;BME280;6580;42.680;23.324;2023-05-21T08:00:23;94978.31;;;27.52;36.79
13027;BME280;6580;42.680;23.324;2023-05-21T08:03:08;94966.53;;;27.46;36.53
13027;BME280;6580;42.680;23.324;2023-05-21T08:05:56;94962.50;;;27.64;34.94
13027;BME280;6580;42.680;23.324;2023-05-21T08:08:41;94949.22;;;26.80;36.14
13027;BME280;6580;42.680;23.324;2023-05-21T08:11:28;94967.97;;;25.56;35.93
13027;BME280;6580;42.680;23.324;2023-05-21T08:14:13;94975.66;;;25.37;35.94
13027;BME280;6580;42.680;23.324;2023-05-21T08:16:59;94974.91;;;25.04;35.56
13027;BME280;6580;42.680;23.324;2023-05-21T08:19:45;94969.84;;;24.91;36.35
13027;BME280;6580;42.680;23.324;2023-05-21T08:22:35;94973.19;;;24.44;37.00
13027;BME280;6580;42.680;23.324;2023-05-21T08:25:21;94976.41;;;24.41;36.90
13027;BME280;6580;42.680;23.324;2023-05-21T08:28:06;94960.22;;;25.05;37.03
13027;BME280;6580;42.680;23.324;2023-05-21T08:30:52;94959.19;;;26.33;35.45
13027;BME280;6580;42.680;23.324;2023-05-21T08:33:38;94970.78;;;25.18;35.81
13027;BME280;6580;42.680;23.324;2023-05-21T08:36:23;94980.50;;;23.66;36.97
13027;BME280;6580;42.680;23.324;2023-05-21T08:39:13;94971.47;;;23.77;38.13
13027;BME280;6580;42.680;23.324;2023-05-21T08:42:06;94971.03;;;24.13;38.73
13027;BME280;6580;42.680;23.324;2023-05-21T08:44:58;94978.91;;;24.59;37.28
13027;BME280;6580;42.680;23.324;2023-05-21T08:47:44;94963.50;;;25.71;35.06
13027;BME280;6580;42.680;23.324;2023-05-21T08:50:32;94954.13;;;27.24;32.42
13027;BME280;6580;42.680;23.324;2023-05-21T08:53:18;94954.78;;;27.51;32.48
13027;BME280;6580;42.680;23.324;2023-05-21T08:56:07;94962.44;;;27.02;30.96
13027;BME280;6580;42.680;23.324;2023-05-21T08:58:56;94950.81;;;27.83;31.05
13027;BME280;6580;42.680;23.324;2023-05-21T09:01:43;94953.06;;;28.21;31.03
13027;BME280;6580;42.680;23.324;2023-05-21T09:04:32;94958.34;;;27.51;30.69
13027;BME280;6580;42.680;23.324;2023-05-21T09:07:19;94970.22;;;25.85;33.58
13027;BME280;6580;42.680;23.324;2023-05-21T09:10:07;94983.41;;;24.69;36.07
13027;BME280;6580;42.680;23.324;2023-05-21T09:12:56;94971.78;;;26.34;34.78
13027;BME280;6580;42.680;23.324;2023-05-21T09:15:42;94960.28;;;27.56;32.84
13027;BME280;6580;42.680;23.324;2023-05-21T09:18:28;94973.13;;;26.31;34.29
13027;BME280;6580;42.680;23.324;2023-05-21T09:21:22;94961.91;;;24.89;35.05
13027;BME280;6580;42.680;23.324;2023-05-21T09:24:08;94970.22;;;25.85;33.28
13027;BME280;6580;42.680;23.324;2023-05-21T09:26:56;94963.47;;;27.28;32.44
13027;BME280;6580;42.680;23.324;2023-05-21T09:29:43;94965.25;;;27.07;31.79
13027;BME280;6580;42.680;23.324;2023-05-21T09:32:30;94975.78;;;26.53;32.15
13027;BME280;6580;42.680;23.324;2023-05-21T09:35:17;94960.28;;;25.53;33.74
13027;BME280;6580;42.680;23.324;2023-05-21T09:38:07;94967.34;;;26.54;30.02
13027;BME280;6580;42.680;23.324;2023-05-21T09:40:54;94958.78;;;27.94;29.30
13027;BME280;6580;42.680;23.324;2023-05-21T09:43:41;94961.25;;;27.96;28.97
13027;BME280;6580;42.680;23.324;2023-05-21T09:46:36;94959.94;;;27.42;28.47
13027;BME280;6580;42.680;23.324;2023-05-21T09:49:24;94955.44;;;27.11;29.39
13027;BME280;6580;42.680;23.324;2023-05-21T09:52:11;94954.38;;;27.79;29.08
13027;BME280;6580;42.680;23.324;2023-05-21T09:54:56;94949.84;;;28.29;28.84
13027;BME280;6580;42.680;23.324;2023-05-21T09:57:43;94944.06;;;28.35;28.89
13027;BME280;6580;42.680;23.324;2023-05-21T10:00:31;94938.50;;;27.86;28.37
13027;BME280;6580;42.680;23.324;2023-05-21T10:03:22;94942.50;;;27.58;29.81
13027;BME280;6580;42.680;23.324;2023-05-21T10:06:10;94932.22;;;27.95;29.23
13027;BME280;6580;42.680;23.324;2023-05-21T10:08:58;94938.72;;;29.28;26.63
13027;BME280;6580;42.680;23.324;2023-05-21T10:11:48;94942.34;;;29.14;27.56
13027;BME280;6580;42.680;23.324;2023-05-21T10:14:36;94938.78;;;29.08;27.29
13027;BME280;6580;42.680;23.324;2023-05-21T10:17:22;94924.88;;;28.20;28.01
13027;BME280;6580;42.680;23.324;2023-05-21T10:20:11;94931.56;;;27.63;29.21
13027;BME280;6580;42.680;23.324;2023-05-21T10:22:57;94931.97;;;26.79;29.68
13027;BME280;6580;42.680;23.324;2023-05-21T10:25:45;94930.97;;;26.90;29.62
13027;BME280;6580;42.680;23.324;2023-05-21T10:28:32;94931.41;;;27.99;29.54
13027;BME280;6580;42.680;23.324;2023-05-21T10:31:19;94912.63;;;30.37;26.05
13027;BME280;6580;42.680;23.324;2023-05-21T10:34:04;94918.97;;;29.90;26.57
13027;BME280;6580;42.680;23.324;2023-05-21T10:36:54;94916.38;;;28.52;28.10
13027;BME280;6580;42.680;23.324;2023-05-21T10:39:42;94926.31;;;27.52;28.68
13027;BME280;6580;42.680;23.324;2023-05-21T10:43:04;94926.91;;;27.02;30.26
13027;BME280;6580;42.680;23.324;2023-05-21T10:49:30;94920.72;;;26.34;31.42
13027;BME280;6580;42.680;23.324;2023-05-21T10:52:29;94915.88;;;25.78;32.30
13027;BME280;6580;42.680;23.324;2023-05-21T10:55:35;94921.56;;;26.40;32.06
13027;BME280;6580;42.680;23.324;2023-05-21T10:58:38;94922.25;;;25.68;32.64
13027;BME280;6580;42.680;23.324;2023-05-21T11:01:30;94920.56;;;25.35;33.23
13027;BME280;6580;42.680;23.324;2023-05-21T11:04:22;94918.16;;;25.17;33.34
13027;BME280;6580;42.680;23.324;2023-05-21T11:07:08;94909.38;;;24.94;34.43
13027;BME280;6580;42.680;23.324;2023-05-21T11:10:34;94927.25;;;24.85;34.54
13027;BME280;6580;42.680;23.324;2023-05-21T11:13:20;94922.84;;;24.63;35.89
13027;BME280;6580;42.680;23.324;2023-05-21T11:16:07;94909.41;;;24.56;35.62
13027;BME280;6580;42.680;23.324;2023-05-21T11:19:01;94921.59;;;24.70;35.63
13027;BME280;6580;42.680;23.324;2023-05-21T11:21:49;94914.50;;;24.69;35.12
13027;BME280;6580;42.680;23.324;2023-05-21T11:24:40;94908.47;;;26.05;34.01
13027;BME280;6580;42.680;23.324;2023-05-21T11:27:41;94907.28;;;25.44;34.54
13027;BME280;6580;42.680;23.324;2023-05-21T11:30:27;94906.16;;;25.40;34.06
13027;BME280;6580;42.680;23.324;2023-05-21T11:33:19;94905.13;;;25.03;34.70
13027;BME280;6580;42.680;23.324;2023-05-21T11:36:10;94898.69;;;24.50;34.95
13027;BME280;6580;42.680;23.324;2023-05-21T11:39:08;94911.00;;;24.03;36.70
13027;BME280;6580;42.680;23.324;2023-05-21T11:41:56;94909.31;;;23.69;37.43
13027;BME280;6580;42.680;23.324;2023-05-21T11:44:46;94906.56;;;23.80;36.90
13027;BME280;6580;42.680;23.324;2023-05-21T11:47:32;94910.16;;;23.86;36.87
13027;BME280;6580;42.680;23.324;2023-05-21T11:50:18;94903.47;;;23.77;37.34
13027;BME280;6580;42.680;23.324;2023-05-21T11:53:06;94905.16;;;23.66;36.69
13027;BME280;6580;42.680;23.324;2023-05-21T11:56:00;94899.72;;;23.66;37.00
13027;BME280;6580;42.680;23.324;2023-05-21T11:58:46;94895.56;;;23.48;37.01
13027;BME280;6580;42.680;23.324;2023-05-21T12:01:34;94873.47;;;23.28;37.67
13027;BME280;6580;42.680;23.324;2023-05-21T12:04:23;94892.44;;;23.39;38.75
13027;BME280;6580;42.680;23.324;2023-05-21T12:07:10;94896.09;;;23.45;42.18
13027;BME280;6580;42.680;23.324;2023-05-21T12:09:59;94897.34;;;23.26;43.90
13027;BME280;6580;42.680;23.324;2023-05-21T12:12:45;94883.31;;;22.78;48.21
13027;BME280;6580;42.680;23.324;2023-05-21T12:15:32;94887.94;;;23.05;45.67
13027;BME280;6580;42.680;23.324;2023-05-21T12:18:19;94894.09;;;23.01;43.92
13027;BME280;6580;42.680;23.324;2023-05-21T12:21:07;94884.56;;;22.98;43.03
13027;BME280;6580;42.680;23.324;2023-05-21T12:23:54;94890.50;;;22.84;44.28
13027;BME280;6580;42.680;23.324;2023-05-21T12:26:42;94883.66;;;22.81;43.76
13027;BME280;6580;42.680;23.324;2023-05-21T12:29:29;94892.09;;;22.57;45.03
13027;BME280;6580;42.680;23.324;2023-05-21T12:32:16;94895.66;;;22.58;46.06
13027;BME280;6580;42.680;23.324;2023-05-21T12:35:05;94881.63;;;22.38;45.90
13027;BME280;6580;42.680;23.324;2023-05-21T12:37:53;94880.81;;;22.37;45.88
13027;BME280;6580;42.680;23.324;2023-05-21T12:40:46;94876.28;;;22.31;45.22
13027;BME280;6580;42.680;23.324;2023-05-21T12:43:31;94874.88;;;22.52;43.96
13027;BME280;6580;42.680;23.324;2023-05-21T12:46:17;94874.19;;;22.45;44.26
13027;BME280;6580;42.680;23.324;2023-05-21T12:49:07;94871.81;;;22.48;44.33
13027;BME280;6580;42.680;23.324;2023-05-21T12:51:57;94871.47;;;22.56;43.42
13027;BME280;6580;42.680;23.324;2023-05-21T12:54:45;94863.41;;;22.50;43.53
13027;BME280;6580;42.680;23.324;2023-05-21T12:57:35;94869.22;;;22.53;44.05
13027;BME280;6580;42.680;23.324;2023-05-21T13:00:24;94868.94;;;22.66;44.19
13027;BME280;6580;42.680;23.324;2023-05-21T13:03:10;94871.47;;;22.56;45.08
13027;BME280;6580;42.680;23.324;2023-05-21T13:05:57;94870.00;;;22.65;44.89
13027;BME280;6580;42.680;23.324;2023-05-21T13:08:47;94866.81;;;22.68;44.75
13027;BME280;6580;42.680;23.324;2023-05-21T13:11:33;94862.72;;;22.31;45.51
13027;BME280;6580;42.680;23.324;2023-05-21T13:14:20;94873.94;;;22.46;47.95
13027;BME280;6580;42.680;23.324;2023-05-21T13:17:06;94867.09;;;22.55;46.50
13027;BME280;6580;42.680;23.324;2023-05-21T13:20:06;94861.41;;;22.57;46.20
13027;BME280;6580;42.680;23.324;2023-05-21T13:22:56;94855.66;;;22.81;46.39
13027;BME280;6580;42.680;23.324;2023-05-21T13:25:48;94852.81;;;22.87;46.13
13027;BME280;6580;42.680;23.324;2023-05-21T13:28:34;94858.50;;;22.86;46.79
13027;BME280;6580;42.680;23.324;2023-05-21T13:31:22;94862.22;;;23.08;45.45
13027;BME280;6580;42.680;23.324;2023-05-21T13:34:09;94855.00;;;23.13;46.73
13027;BME280;6580;42.680;23.324;2023-05-21T13:36:54;94862.84;;;23.26;46.50
13027;BME280;6580;42.680;23.324;2023-05-21T13:39:41;94857.66;;;23.41;45.81
13027;BME280;6580;42.680;23.324;2023-05-21T13:42:29;94849.34;;;23.48;45.83
13027;BME280;6580;42.680;23.324;2023-05-21T13:45:18;94858.03;;;23.45;45.72
13027;BME280;6580;42.680;23.324;2023-05-21T13:48:08;94869.59;;;23.24;46.08
13027;BME280;6580;42.680;23.324;2023-05-21T13:50:53;94859.03;;;23.11;47.13
13027;BME280;6580;42.680;23.324;2023-05-21T13:53:39;94858.13;;;23.22;46.85
13027;BME280;6580;42.680;23.324;2023-05-21T13:56:24;94853.47;;;23.06;46.96
13027;BME280;6580;42.680;23.324;2023-05-21T13:59:12;94849.56;;;22.74;48.21
13027;BME280;6580;42.680;23.324;2023-05-21T14:02:01;94852.81;;;22.87;47.39
13027;BME280;6580;42.680;23.324;2023-05-21T14:04:48;94844.44;;;22.89;47.14
13027;BME280;6580;42.680;23.324;2023-05-21T14:07:35;94847.16;;;22.89;46.84
13027;BME280;6580;42.680;23.324;2023-05-21T14:10:22;94854.25;;;22.90;47.59
13027;BME280;6580;42.680;23.324;2023-05-21T14:13:08;94850.47;;;22.91;46.91
13027;BME280;6580;42.680;23.324;2023-05-21T14:15:57;94842.50;;;23.01;46.93
13027;BME280;6580;42.680;23.324;2023-05-21T14:18:45;94843.88;;;23.15;48.32
13027;BME280;6580;42.680;23.324;2023-05-21T14:21:30;94848.66;;;23.08;47.53
13027;BME280;6580;42.680;23.324;2023-05-21T14:24:16;94841.34;;;23.41;46.53
13027;BME280;6580;42.680;23.324;2023-05-21T14:27:04;94845.00;;;23.63;45.49
13027;BME280;6580;42.680;23.324;2023-05-21T14:29:52;94844.84;;;23.69;46.18
13027;BME280;6580;42.680;23.324;2023-05-21T14:32:40;94838.91;;;23.40;47.35
13027;BME280;6580;42.680;23.324;2023-05-21T14:35:25;94843.88;;;23.15;48.00
13027;BME280;6580;42.680;23.324;2023-05-21T14:38:11;94846.25;;;23.11;48.70
13027;BME280;6580;42.680;23.324;2023-05-21T14:41:00;94839.97;;;22.83;48.98
13027;BME280;6580;42.680;23.324;2023-05-21T14:43:50;94844.94;;;22.74;49.38
13027;BME280;6580;42.680;23.324;2023-05-21T14:46:38;94839.88;;;22.66;49.29